createdAt,value
2022-08-26T00:02:00.007Z,3.42
2022-08-26T00:04:29.553Z,3.40
2022-08-26T00:06:58.410Z,4.38
2022-08-26T00:09:26.131Z,3.83
2022-08-26T00:11:54.406Z,3.65
2022-08-26T00:14:28.315Z,3.45
2022-08-26T00:16:58.882Z,3.55
2022-08-26T00:19:27.850Z,3.30
2022-08-26T00:21:58.398Z,3.85
2022-08-26T00:24:28.377Z,3.47
2022-08-26T00:26:58.255Z,3.97
2022-08-26T00:29:26.191Z,3.78
2022-08-26T00:31:53.592Z,3.50
2022-08-26T00:34:20.977Z,2.85
2022-08-26T00:36:49.215Z,3.60
2022-08-26T00:39:20.048Z,3.92
2022-08-26T00:41:47.994Z,3.60
2022-08-26T00:44:15.271Z,3.90
2022-08-26T00:46:48.698Z,5.15
2022-08-26T00:49:31.416Z,5.32
2022-08-26T00:52:03.342Z,4.20
2022-08-26T00:54:42.413Z,4.22
2022-08-26T00:57:16.464Z,4.25
2022-08-26T00:59:52.024Z,3.92
2022-08-26T01:02:21.480Z,3.80
2022-08-26T01:04:56.463Z,3.33
2022-08-26T01:07:27.424Z,3.55
2022-08-26T01:10:01.269Z,3.67
2022-08-26T01:12:35.415Z,3.47
2022-08-26T01:15:08.151Z,3.65
2022-08-26T01:20:24.293Z,3.45
2022-08-26T01:22:58.496Z,3.60
2022-08-26T01:25:33.704Z,3.95
2022-08-26T01:28:05.856Z,3.17
2022-08-26T01:30:35.577Z,3.38
2022-08-26T01:33:07.001Z,3.25
2022-08-26T01:35:34.237Z,3.03
2022-08-26T01:38:02.359Z,3.22
2022-08-26T01:40:34.234Z,3.72
2022-08-26T01:43:04.022Z,3.58
2022-08-26T01:45:34.594Z,2.85
2022-08-26T01:48:11.671Z,4.17
2022-08-26T01:50:40.050Z,3.05
2022-08-26T01:53:11.341Z,3.08
2022-08-26T01:55:43.262Z,3.10
2022-08-26T01:58:18.610Z,3.00
2022-08-26T02:00:46.737Z,3.67
2022-08-26T02:03:19.138Z,3.88
2022-08-26T02:05:51.447Z,3.10
2022-08-26T02:08:25.305Z,2.92
2022-08-26T02:10:55.030Z,3.15
2022-08-26T02:13:25.519Z,3.20
2022-08-26T02:15:53.952Z,3.88
2022-08-26T02:18:22.904Z,3.47
2022-08-26T02:20:52.859Z,3.33
2022-08-26T02:23:20.423Z,3.70
2022-08-26T02:26:05.101Z,3.28
2022-08-26T02:28:40.616Z,3.15
2022-08-26T02:31:08.338Z,3.15
2022-08-26T02:33:37.362Z,2.50
2022-08-26T02:36:10.694Z,3.30
2022-08-26T02:38:40.696Z,3.65
2022-08-26T02:41:11.348Z,3.28
2022-08-26T02:43:38.460Z,3.95
2022-08-26T02:46:06.095Z,3.70
2022-08-26T02:48:33.499Z,3.58
2022-08-26T02:51:01.853Z,4.07
2022-08-26T02:53:31.798Z,2.80
2022-08-26T02:55:59.903Z,4.07
2022-08-26T02:58:27.398Z,3.58
2022-08-26T03:00:54.731Z,3.25
2022-08-26T03:03:23.655Z,3.03
2022-08-26T03:05:51.762Z,4.13
2022-08-26T03:08:19.539Z,3.65
2022-08-26T03:10:48.031Z,3.15
2022-08-26T03:13:17.374Z,3.33
2022-08-26T03:15:44.707Z,3.25
2022-08-26T03:18:15.095Z,4.07
2022-08-26T03:20:42.269Z,4.60
2022-08-26T03:23:11.263Z,4.35
2022-08-26T03:25:40.042Z,3.80
2022-08-26T03:28:07.691Z,4.15
2022-08-26T03:30:45.813Z,4.15
2022-08-26T03:33:14.430Z,4.35
2022-08-26T03:35:44.041Z,3.20
2022-08-26T03:38:11.860Z,4.35
2022-08-26T03:40:39.959Z,3.83
2022-08-26T03:43:09.608Z,3.38
2022-08-26T03:45:37.922Z,4.28
2022-08-26T03:48:05.780Z,3.35
2022-08-26T03:50:34.208Z,3.80
2022-08-26T03:53:04.041Z,3.47
2022-08-26T03:55:33.201Z,3.88
2022-08-26T03:58:02.181Z,3.45
2022-08-26T04:00:30.387Z,3.95
2022-08-26T04:02:57.983Z,4.55
2022-08-26T04:05:25.543Z,4.35
2022-08-26T04:07:53.226Z,4.03
2022-08-26T04:10:28.435Z,3.97
2022-08-26T04:13:07.944Z,3.85
2022-08-26T04:15:35.901Z,4.03
2022-08-26T04:18:04.556Z,3.50
2022-08-26T04:20:32.048Z,4.88
2022-08-26T04:22:59.587Z,4.35
2022-08-26T04:25:26.650Z,4.30
2022-08-26T04:27:54.227Z,4.85
2022-08-26T04:30:22.152Z,4.43
2022-08-26T04:32:49.945Z,3.83
2022-08-26T04:35:25.691Z,4.43
2022-08-26T04:37:53.835Z,3.95
2022-08-26T04:40:21.317Z,4.35
2022-08-26T04:42:49.436Z,3.60
2022-08-26T04:45:16.797Z,4.90
2022-08-26T04:47:45.171Z,5.03
2022-08-26T04:50:12.828Z,3.25
2022-08-26T04:52:40.480Z,3.13
2022-08-26T04:55:08.800Z,4.20
2022-08-26T04:57:37.246Z,3.47
2022-08-26T05:00:12.745Z,2.80
2022-08-26T05:02:41.239Z,3.22
2022-08-26T05:05:10.647Z,2.83
2022-08-26T05:07:38.222Z,3.92
2022-08-26T05:10:08.782Z,3.80
2022-08-26T05:12:37.943Z,2.80
2022-08-26T05:15:06.063Z,2.92
2022-08-26T05:17:33.675Z,3.42
2022-08-26T05:20:01.009Z,3.30
2022-08-26T05:22:31.066Z,2.67
2022-08-26T05:24:58.242Z,2.92
2022-08-26T05:27:25.622Z,2.90
2022-08-26T05:29:57.362Z,2.60
2022-08-26T05:32:24.579Z,2.65
2022-08-26T05:34:57.125Z,2.60
2022-08-26T05:37:26.119Z,3.10
2022-08-26T05:39:54.241Z,3.03
2022-08-26T05:42:22.039Z,2.28
2022-08-26T05:44:54.088Z,2.80
2022-08-26T05:47:24.634Z,2.28
2022-08-26T05:49:52.821Z,2.60
2022-08-26T05:52:20.595Z,3.05
2022-08-26T05:54:48.119Z,2.70
2022-08-26T05:57:16.124Z,3.10
2022-08-26T05:59:46.044Z,2.43
2022-08-26T06:02:13.386Z,2.83
2022-08-26T06:04:40.994Z,2.35
2022-08-26T06:07:11.640Z,2.83
2022-08-26T06:09:41.556Z,3.25
2022-08-26T06:12:09.208Z,2.85
2022-08-26T06:14:36.532Z,1.95
2022-08-26T06:17:04.503Z,2.63
2022-08-26T06:19:33.110Z,2.67
2022-08-26T06:22:23.303Z,1.95
2022-08-26T06:25:09.918Z,3.10
2022-08-26T06:27:38.252Z,2.55
2022-08-26T06:30:06.656Z,2.00
2022-08-26T06:32:34.602Z,2.60
2022-08-26T06:35:02.678Z,2.75
2022-08-26T06:37:30.918Z,2.10
2022-08-26T06:40:00.765Z,2.28
2022-08-26T06:42:28.009Z,2.50
2022-08-26T06:44:57.630Z,1.95
2022-08-26T06:47:26.241Z,2.35
2022-08-26T06:49:53.603Z,2.30
2022-08-26T06:52:24.554Z,2.88
2022-08-26T06:54:52.334Z,2.50
2022-08-26T06:57:20.585Z,2.78
2022-08-26T06:59:48.743Z,2.30
2022-08-26T07:02:18.667Z,2.55
2022-08-26T07:04:47.901Z,2.47
2022-08-26T07:07:16.270Z,2.53
2022-08-26T07:09:43.475Z,2.33
2022-08-26T07:12:10.826Z,2.17
2022-08-26T07:14:38.567Z,3.13
2022-08-26T07:17:09.193Z,2.78
2022-08-26T07:19:39.786Z,2.42
2022-08-26T07:22:07.349Z,2.22
2022-08-26T07:24:39.066Z,2.70
2022-08-26T07:27:09.781Z,2.27
2022-08-26T07:29:39.288Z,2.00
2022-08-26T07:32:07.820Z,2.40
2022-08-26T07:34:36.783Z,2.42
2022-08-26T07:37:05.960Z,2.28
2022-08-26T07:39:36.651Z,2.95
2022-08-26T07:42:07.887Z,2.63
2022-08-26T07:44:36.911Z,2.58
2022-08-26T07:47:10.126Z,1.90
2022-08-26T07:49:44.418Z,2.67
2022-08-26T07:52:12.490Z,2.05
2022-08-26T07:54:40.795Z,1.98
2022-08-26T07:57:09.422Z,1.98
2022-08-26T07:59:37.748Z,2.80
2022-08-26T08:02:05.226Z,2.20
2022-08-26T08:04:33.151Z,1.90
2022-08-26T08:07:00.525Z,2.88
2022-08-26T08:09:28.781Z,1.90
2022-08-26T08:11:56.204Z,1.90
2022-08-26T08:14:23.709Z,2.40
2022-08-26T08:16:54.518Z,2.15
2022-08-26T08:19:23.924Z,1.70
2022-08-26T08:22:17.111Z,2.33
2022-08-26T08:24:45.347Z,2.15
2022-08-26T08:27:23.502Z,2.30
2022-08-26T08:29:55.031Z,2.20
2022-08-26T08:32:23.542Z,2.15
2022-08-26T08:34:50.742Z,2.22
2022-08-26T08:37:18.073Z,2.00
2022-08-26T08:39:45.734Z,2.53
2022-08-26T08:42:31.772Z,2.03
2022-08-26T08:45:08.118Z,2.50
2022-08-26T08:47:48.064Z,2.10
2022-08-26T08:50:28.745Z,2.00
2022-08-26T08:53:20.513Z,2.45
2022-08-26T08:56:02.710Z,2.03
2022-08-26T08:58:53.681Z,2.45
2022-08-26T09:01:33.504Z,2.35
2022-08-26T09:04:34.410Z,2.63
2022-08-26T09:07:04.561Z,2.10
2022-08-26T09:09:40.620Z,2.33
2022-08-26T09:12:17.021Z,2.50
2022-08-26T09:14:47.470Z,3.15
2022-08-26T09:17:31.551Z,2.63
2022-08-26T09:20:10.858Z,2.42
2022-08-26T09:22:44.165Z,2.40
2022-08-26T09:25:14.454Z,2.50
2022-08-26T09:27:51.204Z,2.00
2022-08-26T09:30:29.646Z,2.80
2022-08-26T09:33:03.971Z,2.72
2022-08-26T09:35:41.055Z,2.60
2022-08-26T09:38:26.663Z,2.80
2022-08-26T09:41:02.094Z,2.35
2022-08-26T09:43:30.093Z,2.17
2022-08-26T09:46:27.604Z,2.40
2022-08-26T09:48:54.932Z,2.42
2022-08-26T09:51:32.238Z,2.10
2022-08-26T09:54:02.359Z,2.45
2022-08-26T09:56:39.455Z,2.45
2022-08-26T09:59:11.194Z,2.60
2022-08-26T10:01:44.954Z,2.90
2022-08-26T10:04:21.966Z,2.67
2022-08-26T10:06:56.357Z,2.90
2022-08-26T10:09:26.545Z,2.38
2022-08-26T10:12:10.570Z,2.90
2022-08-26T10:17:22.832Z,2.63
2022-08-26T10:20:16.798Z,2.53
2022-08-26T10:23:00.797Z,2.55
2022-08-26T10:25:49.003Z,3.03
2022-08-26T10:28:21.023Z,2.70
2022-08-26T10:31:00.942Z,2.42
2022-08-26T10:33:28.720Z,2.33
2022-08-26T10:36:02.018Z,2.30
2022-08-26T10:38:34.779Z,2.97
2022-08-26T10:41:13.380Z,2.63
2022-08-26T10:43:57.117Z,2.70
2022-08-26T10:46:37.374Z,2.72
2022-08-26T10:49:15.488Z,2.60
2022-08-26T10:52:16.373Z,2.35
2022-08-26T10:54:59.796Z,2.47
2022-08-26T10:57:55.996Z,2.53
2022-08-26T11:01:10.117Z,2.35
2022-08-26T11:03:50.838Z,2.22
2022-08-26T11:06:31.565Z,2.20
2022-08-26T11:09:06.250Z,2.55
2022-08-26T11:11:40.203Z,2.30
2022-08-26T11:14:29.012Z,2.55
2022-08-26T11:16:58.971Z,2.90
2022-08-26T11:20:00.688Z,2.85
2022-08-26T11:22:47.851Z,2.60
2022-08-26T11:25:21.014Z,2.50
2022-08-26T11:27:48.173Z,2.45
2022-08-26T11:30:18.553Z,2.50
2022-08-26T11:32:53.353Z,2.30
2022-08-26T11:35:20.751Z,2.85
2022-08-26T11:37:48.561Z,3.03
2022-08-26T11:40:19.503Z,2.35
2022-08-26T11:42:50.770Z,2.40
2022-08-26T11:45:31.296Z,3.03
2022-08-26T11:47:59.006Z,2.67
2022-08-26T11:50:29.018Z,2.97
2022-08-26T11:53:06.248Z,2.63
2022-08-26T11:55:41.935Z,2.70
2022-08-26T11:58:12.975Z,3.30
2022-08-26T12:00:46.283Z,2.70
2022-08-26T12:03:20.813Z,3.10
2022-08-26T12:05:52.440Z,2.70
2022-08-26T12:08:27.790Z,3.35
2022-08-26T12:11:09.713Z,2.78
2022-08-26T12:13:39.393Z,3.20
2022-08-26T12:16:07.577Z,2.50
2022-08-26T12:18:39.618Z,2.40
2022-08-26T12:21:20.340Z,2.72
2022-08-26T12:23:52.726Z,2.33
2022-08-26T12:29:12.665Z,2.60
2022-08-26T12:31:48.578Z,2.70
2022-08-26T12:34:18.547Z,2.40
2022-08-26T12:36:50.436Z,2.80
2022-08-26T12:39:28.951Z,2.53
2022-08-26T12:42:01.627Z,2.30
2022-08-26T12:44:53.882Z,2.13
2022-08-26T12:47:32.717Z,2.78
2022-08-26T12:50:26.443Z,2.60
2022-08-26T12:53:33.257Z,2.17
2022-08-26T12:56:04.671Z,2.65
2022-08-26T12:58:35.008Z,2.92
2022-08-26T13:01:05.298Z,2.20
2022-08-26T13:03:37.222Z,2.65
2022-08-26T13:06:22.718Z,2.95
2022-08-26T13:09:11.500Z,2.67
2022-08-26T13:11:45.190Z,2.60
2022-08-26T13:14:23.759Z,2.67
2022-08-26T13:16:52.438Z,2.90
2022-08-26T13:19:29.676Z,2.33
2022-08-26T13:21:59.214Z,2.47
2022-08-26T13:24:31.736Z,2.33
2022-08-26T13:26:59.777Z,2.42
2022-08-26T13:29:27.539Z,2.58
2022-08-26T13:31:56.375Z,2.78
2022-08-26T13:34:25.430Z,2.08
2022-08-26T13:36:54.701Z,2.53
2022-08-26T13:39:23.076Z,2.63
2022-08-26T13:41:50.747Z,2.65
2022-08-26T13:44:18.442Z,2.80
2022-08-26T13:49:18.303Z,2.10
2022-08-26T13:51:46.206Z,2.50
2022-08-26T13:54:13.302Z,2.30
2022-08-26T13:56:40.739Z,3.25
2022-08-26T13:59:07.983Z,3.08
2022-08-26T14:01:36.150Z,2.22
2022-08-26T14:04:03.891Z,3.15
2022-08-26T14:06:31.344Z,3.38
2022-08-26T14:08:58.966Z,2.30
2022-08-26T14:11:27.168Z,2.38
2022-08-26T14:13:54.374Z,3.45
2022-08-26T14:16:29.318Z,2.85
2022-08-26T14:18:56.645Z,2.95
2022-08-26T14:21:25.190Z,3.10
2022-08-26T14:23:52.692Z,2.40
2022-08-26T14:26:28.783Z,3.28
2022-08-26T14:29:00.334Z,3.15
2022-08-26T14:34:03.639Z,2.45
2022-08-26T14:36:32.584Z,2.55
2022-08-26T14:39:04.438Z,2.88
2022-08-26T14:41:33.427Z,2.90
2022-08-26T14:44:05.050Z,3.67
2022-08-26T14:46:37.906Z,3.22
2022-08-26T14:49:09.848Z,3.30
2022-08-26T14:51:39.030Z,3.05
2022-08-26T14:54:12.587Z,3.25
2022-08-26T14:56:46.488Z,3.50
2022-08-26T14:59:17.747Z,2.70
2022-08-26T15:04:13.930Z,3.30
2022-08-26T15:06:41.111Z,3.15
2022-08-26T15:09:08.533Z,2.85
2022-08-26T15:11:36.119Z,2.80
2022-08-26T15:14:03.339Z,2.42
2022-08-26T15:16:31.143Z,2.60
2022-08-26T15:19:01.207Z,3.05
2022-08-26T15:21:28.623Z,3.67
2022-08-26T15:23:55.659Z,4.38
2022-08-26T15:26:23.849Z,3.90
2022-08-26T15:28:51.768Z,3.83
2022-08-26T15:31:19.399Z,4.43
2022-08-26T15:33:47.285Z,4.28
2022-08-26T15:36:14.482Z,3.60
2022-08-26T15:38:42.597Z,3.63
2022-08-26T15:41:10.411Z,3.35
2022-08-26T15:43:38.736Z,3.53
2022-08-26T15:46:10.952Z,3.03
2022-08-26T15:48:38.801Z,3.60
2022-08-26T15:51:07.459Z,3.72
2022-08-26T15:53:35.724Z,2.92
2022-08-26T15:56:03.299Z,3.05
2022-08-26T15:58:30.527Z,3.58
2022-08-26T16:00:58.522Z,2.88
2022-08-26T16:03:25.604Z,2.83
2022-08-26T16:05:53.583Z,2.70
2022-08-26T16:08:21.329Z,3.60
2022-08-26T16:10:50.849Z,3.40
2022-08-26T16:13:19.958Z,3.03
2022-08-26T16:15:48.437Z,3.15
2022-08-26T16:18:16.373Z,3.20
2022-08-26T16:20:50.140Z,2.60
2022-08-26T16:23:32.175Z,3.40
2022-08-26T16:25:59.523Z,2.63
2022-08-26T16:28:26.974Z,3.80
2022-08-26T16:30:54.439Z,2.92
2022-08-26T16:33:29.244Z,3.45
2022-08-26T16:35:56.940Z,3.80
2022-08-26T16:38:24.567Z,3.60
2022-08-26T16:40:51.693Z,3.55
2022-08-26T16:43:18.858Z,3.35
2022-08-26T16:45:46.008Z,4.05
2022-08-26T16:48:13.605Z,4.07
2022-08-26T16:50:42.496Z,5.00
2022-08-26T16:55:37.363Z,5.05
2022-08-26T16:58:04.732Z,4.45
2022-08-26T17:00:33.151Z,3.65
2022-08-26T17:03:01.581Z,4.40
2022-08-26T17:05:29.737Z,4.38
2022-08-26T17:07:59.873Z,3.45
2022-08-26T17:10:28.248Z,4.80
2022-08-26T17:12:56.891Z,4.30
2022-08-26T17:15:24.114Z,4.35
2022-08-26T17:17:52.495Z,4.63
2022-08-26T17:20:21.511Z,4.60
2022-08-26T17:22:59.492Z,6.88
2022-08-26T17:25:32.227Z,6.82
2022-08-26T17:28:03.338Z,6.70
2022-08-26T17:30:31.993Z,6.55
2022-08-26T17:32:59.945Z,3.78
2022-08-26T17:35:27.283Z,4.38
2022-08-26T17:37:56.263Z,3.40
2022-08-26T17:40:29.793Z,2.83
2022-08-26T17:42:58.849Z,2.92
2022-08-26T17:45:26.886Z,3.30
2022-08-26T17:47:57.047Z,2.97
2022-08-26T17:50:25.733Z,3.17
2022-08-26T17:52:52.948Z,4.40
2022-08-26T17:55:20.568Z,4.80
2022-08-26T17:57:53.545Z,3.30
2022-08-26T18:00:27.679Z,3.42
2022-08-26T18:02:55.586Z,3.13
2022-08-26T18:05:23.481Z,3.30
2022-08-26T18:07:51.839Z,2.55
2022-08-26T18:10:21.783Z,2.45
2022-08-26T18:12:49.188Z,3.10
2022-08-26T18:15:17.409Z,3.47
2022-08-26T18:17:45.232Z,2.67
2022-08-26T18:20:16.715Z,3.28
2022-08-26T18:22:44.973Z,3.17
2022-08-26T18:25:14.362Z,2.70
2022-08-26T18:27:45.068Z,3.78
2022-08-26T18:30:23.507Z,3.60
2022-08-26T18:32:53.259Z,3.70
2022-08-26T18:35:22.334Z,3.63
2022-08-26T18:37:49.817Z,3.85
2022-08-26T18:40:17.909Z,3.28
2022-08-26T18:42:45.768Z,3.67
2022-08-26T18:45:17.747Z,3.80
2022-08-26T18:47:48.424Z,3.78
2022-08-26T18:50:15.859Z,3.57
2022-08-26T18:52:44.946Z,3.20
2022-08-26T18:55:15.568Z,4.35
2022-08-26T18:57:43.659Z,3.08
2022-08-26T19:00:11.638Z,4.00
2022-08-26T19:02:39.529Z,3.17
2022-08-26T19:05:07.237Z,3.03
2022-08-26T19:07:39.633Z,3.30
2022-08-26T19:10:07.580Z,3.03
2022-08-26T19:12:36.599Z,3.63
2022-08-26T19:15:04.471Z,3.13
2022-08-26T19:17:31.837Z,2.95
2022-08-26T19:19:58.908Z,3.70
2022-08-26T19:22:27.345Z,2.90
2022-08-26T19:24:54.549Z,4.80
2022-08-26T19:27:21.688Z,2.95
2022-08-26T19:29:49.046Z,4.25
2022-08-26T19:32:17.728Z,5.95
2022-08-26T19:34:45.037Z,4.63
2022-08-26T19:37:12.284Z,3.03
2022-08-26T19:39:39.795Z,3.00
2022-08-26T19:42:09.077Z,3.08
2022-08-26T19:44:56.158Z,2.83
2022-08-26T19:47:23.977Z,2.60
2022-08-26T19:49:56.005Z,3.63
2022-08-26T19:52:29.853Z,3.05
2022-08-26T19:55:00.244Z,3.17
2022-08-26T19:57:27.707Z,3.42
2022-08-26T19:59:54.843Z,3.40
2022-08-26T20:02:22.183Z,3.08
2022-08-26T20:04:49.438Z,2.75
2022-08-26T20:07:18.836Z,3.53
2022-08-26T20:09:47.847Z,3.25
2022-08-26T20:12:16.355Z,3.03
2022-08-26T20:14:44.266Z,3.47
2022-08-26T20:17:11.790Z,3.05
2022-08-26T20:19:57.460Z,3.80
2022-08-26T20:22:25.601Z,4.05
2022-08-26T20:24:52.896Z,3.40
2022-08-26T20:27:22.309Z,3.03
2022-08-26T20:29:49.858Z,4.32
2022-08-26T20:32:18.787Z,3.67
2022-08-26T20:34:46.190Z,3.60
2022-08-26T20:37:13.397Z,3.85
2022-08-26T20:39:41.427Z,4.30
2022-08-26T20:42:19.809Z,4.22
2022-08-26T20:44:54.898Z,3.70
2022-08-26T20:47:23.242Z,3.72
2022-08-26T20:49:52.572Z,3.75
2022-08-26T20:52:20.051Z,3.70
2022-08-26T20:54:47.258Z,3.63
2022-08-26T20:57:14.828Z,3.10
2022-08-26T20:59:43.162Z,3.22
2022-08-26T21:02:10.388Z,4.10
2022-08-26T21:04:38.008Z,4.03
2022-08-26T21:07:05.299Z,3.75
2022-08-26T21:09:33.262Z,4.28
2022-08-26T21:12:00.668Z,3.78
2022-08-26T21:14:28.770Z,4.05
2022-08-26T21:16:57.262Z,4.00
2022-08-26T21:19:24.743Z,4.15
2022-08-26T21:21:52.446Z,3.95
2022-08-26T21:24:21.739Z,4.60
2022-08-26T21:26:49.690Z,4.60
2022-08-26T21:29:16.979Z,3.63
2022-08-26T21:31:46.783Z,3.88
2022-08-26T21:34:17.571Z,3.90
2022-08-26T21:36:48.610Z,4.87
2022-08-26T21:39:16.831Z,4.28
2022-08-26T21:41:45.733Z,3.88
2022-08-26T21:44:14.975Z,4.60
2022-08-26T21:46:43.895Z,4.60
2022-08-26T21:49:16.252Z,4.10
2022-08-26T21:51:47.393Z,4.10
2022-08-26T21:54:16.273Z,4.10
2022-08-26T21:56:46.920Z,4.05
2022-08-26T21:59:17.000Z,3.97
2022-08-26T22:01:44.339Z,4.50
2022-08-26T22:04:11.752Z,4.13
2022-08-26T22:06:45.387Z,4.40
2022-08-26T22:09:14.446Z,6.60
2022-08-26T22:11:41.974Z,7.30
2022-08-26T22:14:10.211Z,6.82
2022-08-26T22:16:37.884Z,6.28
2022-08-26T22:19:05.584Z,6.80
2022-08-26T22:21:35.402Z,7.90
2022-08-26T22:24:04.145Z,6.20
2022-08-26T22:26:33.065Z,6.13
2022-08-26T22:29:01.319Z,6.28
2022-08-26T22:31:37.918Z,7.28
2022-08-26T22:34:10.284Z,6.55
2022-08-26T22:36:43.682Z,6.47
2022-08-26T22:39:14.350Z,6.95
2022-08-26T22:41:43.499Z,6.78
2022-08-26T22:44:12.057Z,4.78
2022-08-26T22:46:40.771Z,3.60
2022-08-26T22:49:10.089Z,3.38
2022-08-26T22:51:37.574Z,3.95
2022-08-26T22:54:06.228Z,3.97
2022-08-26T22:56:34.136Z,4.10
2022-08-26T22:59:01.382Z,3.10
2022-08-26T23:01:29.512Z,3.95
2022-08-26T23:03:58.159Z,3.00
2022-08-26T23:06:25.531Z,4.07
2022-08-26T23:08:53.249Z,3.83
2022-08-26T23:11:20.684Z,4.22
2022-08-26T23:13:48.149Z,3.15
2022-08-26T23:16:16.074Z,3.22
2022-08-26T23:18:44.354Z,3.65
2022-08-26T23:21:16.533Z,4.18
2022-08-26T23:23:45.486Z,3.80
2022-08-26T23:26:17.416Z,6.38
2022-08-26T23:28:45.305Z,3.97
2022-08-26T23:31:14.418Z,3.28
2022-08-26T23:34:00.310Z,3.55
2022-08-26T23:36:28.668Z,3.15
2022-08-26T23:38:58.207Z,3.70
2022-08-26T23:41:25.395Z,3.60
2022-08-26T23:43:53.227Z,3.08
2022-08-26T23:46:20.764Z,3.30
2022-08-26T23:48:48.861Z,3.30
2022-08-26T23:51:34.714Z,5.05
2022-08-26T23:54:02.411Z,4.03
2022-08-26T23:56:29.579Z,3.53
2022-08-26T23:58:57.172Z,3.45
